createdAt,value
2023-02-27T00:01:09.471Z,77.52
2023-02-27T00:02:52.579Z,77.44
2023-02-27T00:04:39.312Z,77.36
2023-02-27T00:06:14.170Z,78.04
2023-02-27T00:07:49.749Z,78.06
2023-02-27T00:09:21.640Z,77.79
2023-02-27T00:10:53.336Z,77.79
2023-02-27T00:12:25.000Z,77.93
2023-02-27T00:13:56.692Z,78.38
2023-02-27T00:15:32.848Z,77.67
2023-02-27T00:17:06.966Z,77.43
2023-02-27T00:18:40.787Z,78.05
2023-02-27T00:20:14.958Z,77.62
2023-02-27T00:21:46.853Z,78.44
2023-02-27T00:23:18.502Z,77.96
2023-02-27T00:24:53.046Z,78.02
2023-02-27T00:26:24.752Z,77.75
2023-02-27T00:27:56.907Z,78.21
2023-02-27T00:29:40.117Z,77.28
2023-02-27T00:31:11.962Z,77.65
2023-02-27T00:32:44.176Z,77.84
2023-02-27T00:34:15.916Z,77.98
2023-02-27T00:35:56.253Z,77.75
2023-02-27T00:37:27.987Z,77.59
2023-02-27T00:38:59.718Z,77.54
2023-02-27T00:40:33.598Z,77.07
2023-02-27T00:42:05.333Z,77.59
2023-02-27T00:43:36.972Z,76.54
2023-02-27T00:45:09.328Z,77.27
2023-02-27T00:46:41.083Z,76.78
2023-02-27T00:48:12.799Z,77.08
2023-02-27T00:49:44.421Z,77.48
2023-02-27T00:51:24.891Z,77.11
2023-02-27T00:52:59.941Z,76.67
2023-02-27T00:54:34.276Z,75.89
2023-02-27T00:56:09.146Z,76.71
2023-02-27T00:57:41.100Z,76.58
2023-02-27T00:59:12.734Z,75.46
2023-02-27T01:00:44.600Z,76.59
2023-02-27T01:02:16.260Z,75.64
2023-02-27T01:03:47.947Z,76.52
2023-02-27T01:05:19.711Z,75.45
2023-02-27T01:06:53.197Z,76.04
2023-02-27T01:08:27.604Z,76.87
2023-02-27T01:09:59.279Z,75.41
2023-02-27T01:11:30.937Z,75.23
2023-02-27T01:13:04.596Z,76.09
2023-02-27T01:14:40.760Z,75.55
2023-02-27T01:16:21.983Z,76.68
2023-02-27T01:18:03.990Z,76.39
2023-02-27T01:19:37.992Z,76.34
2023-02-27T01:21:12.594Z,76.21
2023-02-27T01:22:48.637Z,76.04
2023-02-27T01:24:20.755Z,75.88
2023-02-27T01:25:52.858Z,76.98
2023-02-27T01:27:24.893Z,76.40
2023-02-27T01:29:01.556Z,76.44
2023-02-27T01:30:36.437Z,76.77
2023-02-27T01:32:11.038Z,77.09
2023-02-27T01:33:42.915Z,77.44
2023-02-27T01:35:22.032Z,77.03
2023-02-27T01:37:03.592Z,76.97
2023-02-27T01:38:36.729Z,77.13
2023-02-27T01:40:10.280Z,76.32
2023-02-27T01:41:45.330Z,76.15
2023-02-27T01:43:18.472Z,76.68
2023-02-27T01:45:27.367Z,77.43
2023-02-27T01:47:03.774Z,76.83
2023-02-27T01:48:38.455Z,77.85
2023-02-27T01:50:11.853Z,77.75
2023-02-27T01:51:45.361Z,78.66
2023-02-27T01:53:17.635Z,78.28
2023-02-27T01:54:50.584Z,77.62
2023-02-27T01:56:24.808Z,77.34
2023-02-27T01:57:56.542Z,78.25
2023-02-27T01:59:28.279Z,78.21
2023-02-27T02:00:59.982Z,78.22
2023-02-27T02:02:35.501Z,78.91
2023-02-27T02:04:10.366Z,78.37
2023-02-27T02:05:42.038Z,77.84
2023-02-27T02:07:15.193Z,77.76
2023-02-27T02:08:48.035Z,78.03
2023-02-27T02:10:21.151Z,77.88
2023-02-27T02:11:52.803Z,77.64
2023-02-27T02:13:24.738Z,78.80
2023-02-27T02:14:56.351Z,78.33
2023-02-27T02:16:36.196Z,78.78
2023-02-27T02:18:19.752Z,78.26
2023-02-27T02:20:23.960Z,77.84
2023-02-27T02:22:21.747Z,77.78
2023-02-27T02:24:07.651Z,77.86
2023-02-27T02:26:06.860Z,78.08
2023-02-27T02:27:48.521Z,77.23
2023-02-27T02:29:59.115Z,77.73
2023-02-27T02:31:45.244Z,77.09
2023-02-27T02:35:51.082Z,76.74
2023-02-27T02:37:49.406Z,77.50
2023-02-27T02:39:34.948Z,76.56
2023-02-27T02:41:10.116Z,75.97
2023-02-27T02:42:45.654Z,76.67
2023-02-27T02:44:19.855Z,76.19
2023-02-27T02:45:54.039Z,76.31
2023-02-27T02:47:30.776Z,77.01
2023-02-27T02:49:06.196Z,76.08
2023-02-27T02:50:41.272Z,75.92
2023-02-27T02:52:15.046Z,76.17
2023-02-27T02:53:48.935Z,75.98
2023-02-27T02:55:24.528Z,75.39
2023-02-27T02:56:58.733Z,75.49
2023-02-27T02:58:33.322Z,76.96
2023-02-27T03:00:07.205Z,75.50
2023-02-27T03:01:40.994Z,76.44
2023-02-27T03:03:14.462Z,76.11
2023-02-27T03:04:48.398Z,76.58
2023-02-27T03:06:21.753Z,75.13
2023-02-27T03:07:55.670Z,74.93
2023-02-27T03:09:30.897Z,75.06
2023-02-27T03:11:17.702Z,75.93
2023-02-27T03:12:55.510Z,75.76
2023-02-27T03:14:31.772Z,75.15
2023-02-27T03:16:12.411Z,75.40
2023-02-27T03:17:49.623Z,74.97
2023-02-27T03:19:28.169Z,75.69
2023-02-27T03:21:07.628Z,75.46
2023-02-27T03:22:46.931Z,75.13
2023-02-27T03:24:24.501Z,74.71
2023-02-27T03:26:03.341Z,75.27
2023-02-27T03:27:39.777Z,75.86
2023-02-27T03:29:12.438Z,75.07
2023-02-27T03:30:49.829Z,75.83
2023-02-27T03:32:27.802Z,75.29
2023-02-27T03:34:04.867Z,75.78
2023-02-27T03:35:49.628Z,75.23
2023-02-27T03:37:25.733Z,75.58
2023-02-27T03:39:03.036Z,76.24
2023-02-27T03:40:52.212Z,75.48
2023-02-27T03:42:30.060Z,76.33
2023-02-27T03:44:05.177Z,75.91
2023-02-27T03:45:38.375Z,76.21
2023-02-27T03:47:09.993Z,76.56
2023-02-27T03:48:44.795Z,76.23
2023-02-27T03:50:16.682Z,77.43
2023-02-27T03:51:48.489Z,76.26
2023-02-27T03:53:23.181Z,76.59
2023-02-27T03:54:57.231Z,75.41
2023-02-27T03:56:30.977Z,76.92
2023-02-27T03:58:02.594Z,75.32
2023-02-27T03:59:35.607Z,75.33
2023-02-27T04:01:07.273Z,75.80
2023-02-27T04:02:38.901Z,76.02
2023-02-27T04:04:12.006Z,77.12
2023-02-27T04:05:43.659Z,76.86
2023-02-27T04:07:24.973Z,75.97
2023-02-27T04:09:00.443Z,75.87
2023-02-27T04:10:45.632Z,75.71
2023-02-27T04:12:29.690Z,75.99
2023-02-27T04:14:16.157Z,76.48
2023-02-27T04:16:00.751Z,75.65
2023-02-27T04:17:32.792Z,76.87
2023-02-27T04:19:11.777Z,76.36
2023-02-27T04:20:44.091Z,75.97
2023-02-27T04:22:22.372Z,76.62
2023-02-27T04:23:56.559Z,76.58
2023-02-27T04:25:35.645Z,75.10
2023-02-27T04:27:12.820Z,75.42
2023-02-27T04:28:45.257Z,75.85
2023-02-27T04:30:22.771Z,75.46
2023-02-27T04:31:58.867Z,75.25
2023-02-27T04:33:36.976Z,75.51
2023-02-27T04:35:10.576Z,75.17
2023-02-27T04:36:43.051Z,75.10
2023-02-27T04:38:17.320Z,74.87
2023-02-27T04:39:53.481Z,75.91
2023-02-27T04:41:26.713Z,75.75
2023-02-27T04:42:58.492Z,75.42
2023-02-27T04:44:30.466Z,75.68
2023-02-27T04:46:02.678Z,76.05
2023-02-27T04:47:38.060Z,75.03
2023-02-27T04:49:12.426Z,75.06
2023-02-27T04:50:45.602Z,75.21
2023-02-27T04:52:18.876Z,75.53
2023-02-27T04:53:52.739Z,75.74
2023-02-27T04:55:26.591Z,75.85
2023-02-27T04:57:00.302Z,75.68
2023-02-27T04:58:33.796Z,75.62
2023-02-27T05:00:07.940Z,75.99
2023-02-27T05:01:40.930Z,75.24
2023-02-27T05:03:21.546Z,75.43
2023-02-27T05:04:55.642Z,74.49
2023-02-27T05:06:28.597Z,74.67
2023-02-27T05:08:02.108Z,75.37
2023-02-27T05:09:36.824Z,74.25
2023-02-27T05:11:10.695Z,74.47
2023-02-27T05:12:44.612Z,74.82
2023-02-27T05:14:17.587Z,74.75
2023-02-27T05:15:50.697Z,76.10
2023-02-27T05:17:23.277Z,75.66
2023-02-27T05:18:56.254Z,74.67
2023-02-27T05:20:43.069Z,75.40
2023-02-27T05:22:22.271Z,76.22
2023-02-27T05:23:58.728Z,76.30
2023-02-27T05:25:33.088Z,76.13
2023-02-27T05:27:18.572Z,76.07
2023-02-27T05:28:53.292Z,75.69
2023-02-27T05:30:26.926Z,75.45
2023-02-27T05:32:03.993Z,75.75
2023-02-27T05:33:36.747Z,75.98
2023-02-27T05:35:13.409Z,75.17
2023-02-27T05:36:46.692Z,74.51
2023-02-27T05:38:20.279Z,74.70
2023-02-27T05:39:52.250Z,75.28
2023-02-27T05:41:26.019Z,74.66
2023-02-27T05:43:00.091Z,75.41
2023-02-27T05:44:33.361Z,74.30
2023-02-27T05:46:06.495Z,74.35
2023-02-27T05:47:39.879Z,75.11
2023-02-27T05:49:13.528Z,75.06
2023-02-27T05:50:47.554Z,75.74
2023-02-27T05:52:20.196Z,74.63
2023-02-27T05:53:54.029Z,75.22
2023-02-27T05:55:27.727Z,75.10
2023-02-27T05:56:59.376Z,75.03
2023-02-27T05:58:32.964Z,74.60
2023-02-27T06:00:08.611Z,75.13
2023-02-27T06:01:40.300Z,74.19
2023-02-27T06:03:12.054Z,74.99
2023-02-27T06:04:43.729Z,74.31
2023-02-27T06:06:17.897Z,74.95
2023-02-27T06:07:49.599Z,74.37
2023-02-27T06:09:21.440Z,74.79
2023-02-27T06:10:55.181Z,74.70
2023-02-27T06:12:27.078Z,74.88
2023-02-27T06:13:58.735Z,74.72
2023-02-27T06:15:30.437Z,74.13
2023-02-27T06:17:02.107Z,74.49
2023-02-27T06:18:33.850Z,74.81
2023-02-27T06:20:06.927Z,74.58
2023-02-27T06:21:42.710Z,75.53
2023-02-27T06:23:14.445Z,75.48
2023-02-27T06:24:46.125Z,74.97
2023-02-27T06:26:17.997Z,74.55
2023-02-27T06:27:49.659Z,74.73
2023-02-27T06:29:21.716Z,74.15
2023-02-27T06:30:53.929Z,74.66
2023-02-27T06:32:25.883Z,74.75
2023-02-27T06:33:57.913Z,74.44
2023-02-27T06:35:29.691Z,74.91
2023-02-27T06:37:04.340Z,75.22
2023-02-27T06:38:36.856Z,74.44
2023-02-27T06:40:12.287Z,74.56
2023-02-27T06:41:44.275Z,74.50
2023-02-27T06:43:15.950Z,75.42
2023-02-27T06:44:47.578Z,74.84
2023-02-27T06:46:19.254Z,75.03
2023-02-27T06:47:51.075Z,74.98
2023-02-27T06:49:22.912Z,74.69
2023-02-27T06:50:54.898Z,73.75
2023-02-27T06:52:27.862Z,74.73
2023-02-27T06:53:59.544Z,74.98
2023-02-27T06:55:31.220Z,73.43
2023-02-27T06:57:02.982Z,74.88
2023-02-27T06:58:34.653Z,74.79
2023-02-27T07:00:07.707Z,75.07
2023-02-27T07:01:39.399Z,74.94
2023-02-27T07:03:14.521Z,74.22
2023-02-27T07:04:46.816Z,74.43
2023-02-27T07:06:18.672Z,73.59
2023-02-27T07:07:51.910Z,73.68
2023-02-27T07:09:26.022Z,74.10
2023-02-27T07:10:58.003Z,73.55
2023-02-27T07:12:29.955Z,74.25
2023-02-27T07:14:01.830Z,73.94
2023-02-27T07:15:36.456Z,72.93
2023-02-27T07:17:08.349Z,73.71
2023-02-27T07:18:40.305Z,73.52
2023-02-27T07:20:12.389Z,74.30
2023-02-27T07:21:44.225Z,73.87
2023-02-27T07:23:17.810Z,74.39
2023-02-27T07:24:50.034Z,73.93
2023-02-27T07:26:21.933Z,73.89
2023-02-27T07:27:53.720Z,74.60
2023-02-27T07:29:25.693Z,74.98
2023-02-27T07:31:00.187Z,74.32
2023-02-27T07:32:31.998Z,73.45
2023-02-27T07:34:06.885Z,73.14
2023-02-27T07:35:38.937Z,73.80
2023-02-27T07:37:10.958Z,73.47
2023-02-27T07:38:44.145Z,74.15
2023-02-27T07:40:16.666Z,74.10
2023-02-27T07:41:48.752Z,73.43
2023-02-27T07:47:01.255Z,73.90
2023-02-27T07:56:07.356Z,73.13
2023-02-27T07:57:53.015Z,72.90
2023-02-27T07:59:48.415Z,73.71
2023-02-27T08:07:34.379Z,73.41
2023-02-27T08:09:27.807Z,72.64
2023-02-27T08:11:03.722Z,73.48
2023-02-27T08:12:45.772Z,73.10
2023-02-27T08:14:19.123Z,72.88
2023-02-27T08:15:50.919Z,72.95
2023-02-27T08:17:22.747Z,73.12
2023-02-27T08:18:54.485Z,72.67
2023-02-27T08:20:26.340Z,72.56
2023-02-27T08:21:59.880Z,72.12
2023-02-27T08:23:32.005Z,72.63
2023-02-27T08:25:05.791Z,73.27
2023-02-27T08:26:37.725Z,72.61
2023-02-27T08:28:09.475Z,73.25
2023-02-27T08:29:43.429Z,73.31
2023-02-27T08:31:15.375Z,73.37
2023-02-27T08:32:48.451Z,72.19
2023-02-27T08:34:20.294Z,73.09
2023-02-27T08:35:54.460Z,73.17
2023-02-27T08:37:26.243Z,72.93
2023-02-27T08:38:58.052Z,73.37
2023-02-27T08:40:29.854Z,72.62
2023-02-27T08:42:01.673Z,72.95
2023-02-27T08:43:33.574Z,72.41
2023-02-27T08:45:08.790Z,72.91
2023-02-27T08:46:40.546Z,72.28
2023-02-27T08:48:14.236Z,72.90
2023-02-27T08:49:45.953Z,72.51
2023-02-27T08:51:17.776Z,72.40
2023-02-27T08:52:49.539Z,71.68
2023-02-27T08:54:21.526Z,72.88
2023-02-27T08:55:53.529Z,72.67
2023-02-27T08:57:25.329Z,72.57
2023-02-27T08:58:57.212Z,72.44
2023-02-27T09:00:32.677Z,72.11
2023-02-27T09:02:04.810Z,72.95
2023-02-27T09:03:37.384Z,72.76
2023-02-27T09:05:09.653Z,72.48
2023-02-27T09:06:41.427Z,71.87
2023-02-27T09:08:13.160Z,72.82
2023-02-27T09:09:45.200Z,72.93
2023-02-27T09:11:17.276Z,72.16
2023-02-27T09:12:49.403Z,72.05
2023-02-27T09:14:21.287Z,72.29
2023-02-27T09:15:54.652Z,70.65
2023-02-27T09:17:26.585Z,71.28
2023-02-27T09:19:00.203Z,71.39
2023-02-27T09:20:32.121Z,72.37
2023-02-27T09:22:07.312Z,70.89
2023-02-27T09:23:39.432Z,71.66
2023-02-27T09:25:11.184Z,70.88
2023-02-27T09:26:46.339Z,70.74
2023-02-27T09:28:18.673Z,71.21
2023-02-27T09:29:55.475Z,71.55
2023-02-27T09:31:32.901Z,70.71
2023-02-27T09:33:05.156Z,71.02
2023-02-27T09:34:37.025Z,70.43
2023-02-27T09:36:09.038Z,71.11
2023-02-27T09:37:40.900Z,69.88
2023-02-27T09:39:12.767Z,71.35
2023-02-27T09:40:44.590Z,70.58
2023-02-27T09:42:19.311Z,71.38
2023-02-27T09:43:51.067Z,70.85
2023-02-27T09:45:24.661Z,71.16
2023-02-27T09:46:57.949Z,70.33
2023-02-27T09:48:30.598Z,70.63
2023-02-27T09:50:03.317Z,70.11
2023-02-27T09:51:35.137Z,70.10
2023-02-27T09:53:09.640Z,71.27
2023-02-27T09:54:43.683Z,71.30
2023-02-27T09:56:20.164Z,70.39
2023-02-27T09:57:56.330Z,70.41
2023-02-27T09:59:31.791Z,70.48
2023-02-27T10:01:05.787Z,70.85
2023-02-27T10:02:45.006Z,70.11
2023-02-27T10:04:30.491Z,70.55
2023-02-27T10:06:20.945Z,70.29
2023-02-27T10:07:56.121Z,70.08
2023-02-27T10:09:35.799Z,70.09
2023-02-27T10:11:08.364Z,70.66
2023-02-27T10:13:08.957Z,69.14
2023-02-27T10:14:42.951Z,69.62
2023-02-27T10:16:20.876Z,70.55
2023-02-27T10:17:56.127Z,70.05
2023-02-27T10:19:30.640Z,69.33
2023-02-27T10:21:07.042Z,69.84
2023-02-27T10:22:41.406Z,70.45
2023-02-27T10:24:17.650Z,70.28
2023-02-27T10:25:50.334Z,70.35
2023-02-27T10:27:22.275Z,70.08
2023-02-27T10:28:54.063Z,70.46
2023-02-27T10:30:34.939Z,70.89
2023-02-27T10:32:08.054Z,70.64
2023-02-27T10:33:42.175Z,68.46
2023-02-27T10:35:21.325Z,70.19
2023-02-27T10:36:53.447Z,70.13
2023-02-27T10:38:29.448Z,69.73
2023-02-27T10:40:04.059Z,69.99
2023-02-27T10:41:36.142Z,70.37
2023-02-27T10:43:07.952Z,69.25
2023-02-27T10:44:39.729Z,69.68
2023-02-27T10:46:13.820Z,69.38
2023-02-27T10:47:45.993Z,69.10
2023-02-27T10:49:19.994Z,69.64
2023-02-27T10:50:52.336Z,68.95
2023-02-27T10:52:24.284Z,69.25
2023-02-27T10:54:14.320Z,68.36
2023-02-27T10:55:48.277Z,69.82
2023-02-27T10:57:23.706Z,70.50
2023-02-27T10:59:05.715Z,69.73
2023-02-27T11:00:44.220Z,69.80
2023-02-27T11:02:21.739Z,69.75
2023-02-27T11:03:55.519Z,69.83
2023-02-27T11:05:29.832Z,69.76
2023-02-27T11:07:06.683Z,68.32
2023-02-27T11:08:38.729Z,70.01
2023-02-27T11:10:17.313Z,70.35
2023-02-27T11:11:52.299Z,69.50
2023-02-27T11:13:28.028Z,69.97
2023-02-27T11:15:03.699Z,69.76
2023-02-27T11:16:45.470Z,67.81
2023-02-27T11:18:21.786Z,68.69
2023-02-27T11:19:55.598Z,69.21
2023-02-27T11:21:32.372Z,68.80
2023-02-27T11:23:05.067Z,69.64
2023-02-27T11:24:37.076Z,69.93
2023-02-27T11:26:19.822Z,69.83
2023-02-27T11:27:54.465Z,69.03
2023-02-27T11:29:30.038Z,68.47
2023-02-27T11:31:03.827Z,69.56
2023-02-27T11:32:37.230Z,69.24
2023-02-27T11:34:18.350Z,70.27
2023-02-27T11:35:50.959Z,68.46
2023-02-27T11:37:31.432Z,70.02
2023-02-27T11:39:03.219Z,69.15
2023-02-27T11:40:37.031Z,68.67
2023-02-27T11:42:17.286Z,69.52
2023-02-27T11:43:50.390Z,67.67
2023-02-27T11:46:04.387Z,68.26
2023-02-27T11:47:27.601Z,68.38
2023-02-27T11:49:03.189Z,68.68
2023-02-27T11:50:41.009Z,68.61
2023-02-27T11:52:13.417Z,68.99
2023-02-27T11:53:58.048Z,68.76
2023-02-27T11:55:32.627Z,69.15
2023-02-27T11:57:09.014Z,69.94
2023-02-27T11:58:53.157Z,69.30
2023-02-27T12:00:29.619Z,68.94
2023-02-27T12:02:03.520Z,70.08
2023-02-27T12:03:43.011Z,69.85
2023-02-27T12:05:26.529Z,69.33
2023-02-27T12:07:01.556Z,70.23
2023-02-27T12:08:36.321Z,69.99
2023-02-27T12:10:20.976Z,69.63
2023-02-27T12:11:53.339Z,70.55
2023-02-27T12:13:26.104Z,70.12
2023-02-27T12:15:02.934Z,69.90
2023-02-27T12:16:37.636Z,69.60
2023-02-27T12:18:15.412Z,70.17
2023-02-27T12:20:09.812Z,70.24
2023-02-27T12:21:42.584Z,69.20
2023-02-27T12:23:17.404Z,71.13
2023-02-27T12:24:51.442Z,72.20
2023-02-27T12:26:27.024Z,70.83
2023-02-27T12:29:51.022Z,71.46
2023-02-27T12:31:45.363Z,72.40
2023-02-27T12:33:20.117Z,72.36
2023-02-27T12:34:52.977Z,73.44
2023-02-27T12:36:24.841Z,73.26
2023-02-27T12:37:56.772Z,73.49
2023-02-27T12:39:31.715Z,74.09
2023-02-27T12:41:12.793Z,73.35
2023-02-27T12:43:02.297Z,73.70
2023-02-27T12:44:46.334Z,74.48
2023-02-27T12:46:36.963Z,73.10
2023-02-27T12:48:20.750Z,73.98
2023-02-27T12:49:56.508Z,74.91
2023-02-27T12:51:43.432Z,74.96
2023-02-27T12:53:25.596Z,76.21
2023-02-27T12:55:01.652Z,77.36
2023-02-27T12:56:42.339Z,78.04
2023-02-27T12:58:52.852Z,78.60
2023-02-27T13:00:26.477Z,80.47
2023-02-27T13:02:09.752Z,80.95
2023-02-27T13:03:48.899Z,80.90
2023-02-27T13:05:41.332Z,82.51
2023-02-27T13:07:25.110Z,81.04
2023-02-27T13:09:05.803Z,81.56
2023-02-27T13:10:42.323Z,81.26
2023-02-27T13:12:32.505Z,81.29
2023-02-27T13:14:07.365Z,81.65
2023-02-27T13:15:46.973Z,81.17
2023-02-27T13:17:26.328Z,81.10
2023-02-27T13:19:01.406Z,81.67
2023-02-27T13:20:36.226Z,80.32
2023-02-27T13:22:12.729Z,81.19
2023-02-27T13:23:50.139Z,81.06
2023-02-27T13:25:26.553Z,80.43
2023-02-27T13:27:08.057Z,81.15
2023-02-27T13:28:53.671Z,80.11
2023-02-27T13:30:38.145Z,80.37
2023-02-27T13:32:21.634Z,80.01
2023-02-27T13:35:16.633Z,78.88
2023-02-27T13:36:54.344Z,78.58
2023-02-27T13:38:34.630Z,79.20
2023-02-27T13:40:35.873Z,78.82
2023-02-27T13:42:53.142Z,79.71
2023-02-27T13:44:41.039Z,77.93
2023-02-27T13:46:30.992Z,78.86
2023-02-27T13:48:25.031Z,78.65
2023-02-27T13:50:03.873Z,78.27
2023-02-27T13:51:49.660Z,77.97
2023-02-27T13:53:32.838Z,79.62
2023-02-27T13:55:23.717Z,78.87
2023-02-27T13:57:36.377Z,78.75
2023-02-27T13:59:20.258Z,78.49
2023-02-27T14:01:27.967Z,78.85
2023-02-27T14:03:10.440Z,78.06
2023-02-27T14:04:48.382Z,77.65
2023-02-27T14:06:20.675Z,77.19
2023-02-27T14:08:00.999Z,78.81
2023-02-27T14:09:35.057Z,76.83
2023-02-27T14:11:16.418Z,77.32
2023-02-27T14:12:48.239Z,76.68
2023-02-27T14:14:46.304Z,76.01
2023-02-27T14:16:54.919Z,76.80
2023-02-27T14:18:51.810Z,76.62
2023-02-27T14:20:50.553Z,76.45
2023-02-27T14:22:37.300Z,76.14
2023-02-27T14:24:11.518Z,76.34
2023-02-27T14:25:45.181Z,75.71
2023-02-27T14:27:19.014Z,76.44
2023-02-27T14:28:55.555Z,76.14
2023-02-27T14:30:33.067Z,75.77
2023-02-27T14:32:06.964Z,76.17
2023-02-27T14:33:41.423Z,75.14
2023-02-27T14:35:16.559Z,74.68
2023-02-27T14:36:50.140Z,74.77
2023-02-27T14:38:21.925Z,74.29
2023-02-27T14:39:54.415Z,75.46
2023-02-27T14:41:38.207Z,74.29
2023-02-27T14:43:15.109Z,73.71
2023-02-27T14:44:47.283Z,74.02
2023-02-27T14:46:23.636Z,73.23
2023-02-27T14:47:55.318Z,74.95
2023-02-27T14:49:28.738Z,74.67
2023-02-27T14:51:01.777Z,73.34
2023-02-27T14:52:40.851Z,73.74
2023-02-27T14:54:13.960Z,73.54
2023-02-27T14:55:45.721Z,73.81
2023-02-27T14:57:18.276Z,72.84
2023-02-27T14:59:03.341Z,73.25
2023-02-27T15:00:37.268Z,73.62
2023-02-27T15:02:15.983Z,73.82
2023-02-27T15:03:48.548Z,73.12
2023-02-27T15:05:21.410Z,73.32
2023-02-27T15:06:54.833Z,72.63
2023-02-27T15:08:28.026Z,72.60
2023-02-27T15:10:01.624Z,73.87
2023-02-27T15:11:34.365Z,72.80
2023-02-27T15:13:06.238Z,73.01
2023-02-27T15:14:39.402Z,73.31
2023-02-27T15:16:26.399Z,72.00
2023-02-27T15:18:03.699Z,73.05
2023-02-27T15:19:39.646Z,72.41
2023-02-27T15:21:31.866Z,72.97
2023-02-27T15:23:21.339Z,72.43
2023-02-27T15:24:57.610Z,72.79
2023-02-27T15:26:30.994Z,73.28
2023-02-27T15:28:03.612Z,72.90
2023-02-27T15:29:36.458Z,73.36
2023-02-27T15:31:09.570Z,73.18
2023-02-27T15:32:41.940Z,73.60
2023-02-27T15:34:14.101Z,72.78
2023-02-27T15:35:45.995Z,73.08
2023-02-27T15:37:19.890Z,72.87
2023-02-27T15:39:05.974Z,73.02
2023-02-27T15:40:37.895Z,71.99
2023-02-27T15:42:09.841Z,73.64
2023-02-27T15:43:41.680Z,73.45
2023-02-27T15:45:17.369Z,74.21
2023-02-27T15:46:49.119Z,73.62
2023-02-27T15:48:20.978Z,74.12
2023-02-27T15:49:55.126Z,73.57
2023-02-27T15:51:27.099Z,73.70
2023-02-27T15:53:00.648Z,73.22
2023-02-27T15:54:34.437Z,73.04
2023-02-27T15:56:09.529Z,73.29
2023-02-27T15:57:47.476Z,73.79
2023-02-27T15:59:25.399Z,73.14
2023-02-27T16:01:00.786Z,73.62
2023-02-27T16:02:36.951Z,74.60
2023-02-27T16:04:20.555Z,75.41
2023-02-27T16:05:53.229Z,76.09
2023-02-27T16:07:25.496Z,76.42
2023-02-27T16:08:58.544Z,76.51
2023-02-27T16:10:36.752Z,76.52
2023-02-27T16:12:30.714Z,77.14
2023-02-27T16:14:02.948Z,76.04
2023-02-27T16:15:36.371Z,76.07
2023-02-27T16:17:26.120Z,76.78
2023-02-27T16:18:58.415Z,76.86
2023-02-27T16:20:41.010Z,76.71
2023-02-27T16:22:14.339Z,76.71
2023-02-27T16:23:46.224Z,76.34
2023-02-27T16:25:19.061Z,76.78
2023-02-27T16:26:52.980Z,76.02
2023-02-27T16:28:26.971Z,75.88
2023-02-27T16:30:03.178Z,75.67
2023-02-27T16:31:36.188Z,76.82
2023-02-27T16:33:21.138Z,76.30
2023-02-27T16:35:00.507Z,75.31
2023-02-27T16:38:18.051Z,75.11
2023-02-27T16:39:56.194Z,75.95
2023-02-27T16:41:30.486Z,73.53
2023-02-27T16:43:10.997Z,73.64
2023-02-27T16:44:45.307Z,74.19
2023-02-27T16:46:21.180Z,73.79
2023-02-27T16:48:04.389Z,74.18
2023-02-27T16:49:41.329Z,74.25
2023-02-27T16:51:16.826Z,73.53
2023-02-27T16:53:08.146Z,72.48
2023-02-27T16:54:39.969Z,72.72
2023-02-27T16:56:23.719Z,71.96
2023-02-27T16:58:00.980Z,71.56
2023-02-27T16:59:43.021Z,70.08
2023-02-27T17:01:19.822Z,71.31
2023-02-27T17:02:52.958Z,71.01
2023-02-27T17:04:26.241Z,71.55
2023-02-27T17:06:03.129Z,71.25
2023-02-27T17:07:35.218Z,70.93
2023-02-27T17:09:09.109Z,70.74
2023-02-27T17:10:44.019Z,71.46
2023-02-27T17:12:39.321Z,70.32
2023-02-27T17:14:11.283Z,70.33
2023-02-27T17:16:38.839Z,71.22
2023-02-27T17:18:17.410Z,70.68
2023-02-27T17:19:51.568Z,71.40
2023-02-27T17:21:23.635Z,70.16
2023-02-27T17:22:57.660Z,70.68
2023-02-27T17:24:31.610Z,70.90
2023-02-27T17:26:04.485Z,71.15
2023-02-27T17:27:42.449Z,70.34
2023-02-27T17:29:20.880Z,70.44
2023-02-27T17:32:52.363Z,72.42
2023-02-27T17:34:24.092Z,71.72
2023-02-27T17:36:02.040Z,72.71
2023-02-27T17:37:34.361Z,73.12
2023-02-27T17:39:06.371Z,72.77
2023-02-27T17:40:41.139Z,72.87
2023-02-27T17:42:16.561Z,73.68
2023-02-27T17:43:50.229Z,73.64
2023-02-27T17:45:24.715Z,73.53
2023-02-27T17:47:00.117Z,73.99
2023-02-27T17:48:31.782Z,75.43
2023-02-27T17:50:04.223Z,74.22
2023-02-27T17:51:39.194Z,75.26
2023-02-27T17:53:12.932Z,75.25
2023-02-27T17:54:48.976Z,75.07
2023-02-27T17:56:26.673Z,75.82
2023-02-27T17:57:58.803Z,77.16
2023-02-27T17:59:31.698Z,76.57
2023-02-27T18:01:06.668Z,76.68
2023-02-27T18:02:43.414Z,76.97
2023-02-27T18:04:16.241Z,77.39
2023-02-27T18:05:49.217Z,77.33
2023-02-27T18:07:21.054Z,77.44
2023-02-27T18:08:52.783Z,76.99
2023-02-27T18:10:24.459Z,76.97
2023-02-27T18:11:56.370Z,76.01
2023-02-27T18:13:31.188Z,76.00
2023-02-27T18:15:03.305Z,76.80
2023-02-27T18:16:35.478Z,76.23
2023-02-27T18:18:08.507Z,76.98
2023-02-27T18:19:40.340Z,76.63
2023-02-27T18:21:13.025Z,76.93
2023-02-27T18:22:44.756Z,77.43
2023-02-27T18:24:16.595Z,78.02
2023-02-27T18:25:53.641Z,77.56
2023-02-27T18:27:27.115Z,77.64
2023-02-27T18:29:01.537Z,78.41
2023-02-27T18:30:36.759Z,78.32
2023-02-27T18:32:08.692Z,78.23
2023-02-27T18:33:41.901Z,78.76
2023-02-27T18:35:13.664Z,78.74
2023-02-27T18:36:45.418Z,78.93
2023-02-27T18:38:17.220Z,78.72
2023-02-27T18:39:49.081Z,79.29
2023-02-27T18:41:20.729Z,79.01
2023-02-27T18:42:52.615Z,80.01
2023-02-27T18:44:36.986Z,79.55
2023-02-27T18:46:20.785Z,80.49
2023-02-27T18:47:55.242Z,80.60
2023-02-27T18:49:28.478Z,79.96
2023-02-27T18:51:07.243Z,80.26
2023-02-27T18:52:39.154Z,80.30
2023-02-27T18:54:16.734Z,79.31
2023-02-27T18:55:51.396Z,79.50
2023-02-27T18:57:28.981Z,80.72
2023-02-27T18:59:05.845Z,79.87
2023-02-27T19:00:41.404Z,79.88
2023-02-27T19:02:17.362Z,80.21
2023-02-27T19:04:02.406Z,79.24
2023-02-27T19:05:41.392Z,79.35
2023-02-27T19:07:13.571Z,77.85
2023-02-27T19:08:46.051Z,79.31
2023-02-27T19:10:18.180Z,78.22
2023-02-27T19:11:57.540Z,78.31
2023-02-27T19:13:37.123Z,78.45
2023-02-27T19:15:10.906Z,78.76
2023-02-27T19:16:44.329Z,78.18
2023-02-27T19:18:16.427Z,78.41
2023-02-27T19:19:52.657Z,78.02
2023-02-27T19:21:26.056Z,78.91
2023-02-27T19:23:06.095Z,78.31
2023-02-27T19:24:38.015Z,78.14
2023-02-27T19:26:14.173Z,77.68
2023-02-27T19:27:56.831Z,76.98
2023-02-27T19:29:44.770Z,79.10
2023-02-27T19:31:27.329Z,78.06
2023-02-27T19:33:01.944Z,78.47
2023-02-27T19:34:41.876Z,77.24
2023-02-27T19:36:24.470Z,77.34
2023-02-27T19:38:16.048Z,77.54
2023-02-27T19:41:54.583Z,76.48
2023-02-27T19:48:39.213Z,77.66
2023-02-27T19:51:56.832Z,75.90
2023-02-27T19:53:31.489Z,76.27
2023-02-27T19:55:42.003Z,76.80
2023-02-27T19:57:37.818Z,76.82
2023-02-27T19:59:12.022Z,76.41
2023-02-27T20:00:43.992Z,76.91
2023-02-27T20:02:17.284Z,77.46
2023-02-27T20:03:55.316Z,75.72
2023-02-27T20:05:27.164Z,76.23
2023-02-27T20:06:58.911Z,75.87
2023-02-27T20:08:33.292Z,75.90
2023-02-27T20:10:05.811Z,75.50
2023-02-27T20:11:37.545Z,75.28
2023-02-27T20:13:09.338Z,75.17
2023-02-27T20:14:47.709Z,74.75
2023-02-27T20:16:32.863Z,75.17
2023-02-27T20:18:13.986Z,75.30
2023-02-27T20:19:45.802Z,75.79
2023-02-27T20:23:24.811Z,75.75
2023-02-27T20:29:09.736Z,75.43
2023-02-27T20:31:19.064Z,74.67
2023-02-27T20:45:00.972Z,75.26
2023-02-27T20:54:40.903Z,76.04
2023-02-27T20:59:12.812Z,75.46
2023-02-27T21:08:13.494Z,76.61
2023-02-27T21:10:00.281Z,76.01
2023-02-27T21:12:17.452Z,76.86
2023-02-27T21:14:15.357Z,76.13
2023-02-27T21:16:33.544Z,75.48
2023-02-27T21:18:54.888Z,76.19
2023-02-27T21:20:49.722Z,76.43
2023-02-27T21:22:39.820Z,77.51
2023-02-27T21:24:52.475Z,76.70
2023-02-27T21:28:56.464Z,76.49
2023-02-27T21:32:13.362Z,77.06
2023-02-27T21:33:45.545Z,77.47
2023-02-27T21:35:30.077Z,77.33
2023-02-27T21:37:03.053Z,76.90
2023-02-27T21:38:35.149Z,77.04
2023-02-27T21:40:07.768Z,77.18
2023-02-27T21:41:39.826Z,77.52
2023-02-27T21:43:21.346Z,77.39
2023-02-27T21:44:55.232Z,77.91
2023-02-27T21:46:27.212Z,77.46
2023-02-27T21:48:00.258Z,77.63
2023-02-27T21:49:36.249Z,77.31
2023-02-27T21:51:07.941Z,78.42
2023-02-27T21:52:44.940Z,77.66
2023-02-27T21:54:16.808Z,77.53
2023-02-27T21:55:48.491Z,77.78
2023-02-27T21:57:21.689Z,77.99
2023-02-27T21:58:53.585Z,77.50
2023-02-27T22:00:27.664Z,77.47